Time;durP1;ratioP1;P1;durP2;ratioP2;P2;SDS_P1;SDS_P2;PMS_P1;PMS_P2;Temp;Humidity;BMP_temperature;BMP_pressure;BME280_temperature;BME280_humidity;BME280_pressure;Samples;Min_cycle;Max_cycle;Signal;HPM_P1;HPM_P2
2023/10/20 00:01:42;;;;;;;25.20;22.07;;;9.00;99.90;;;;;;6130755;23;20369;-91
2023/10/20 00:04:08;;;;;;;27.63;22.88;;;8.80;99.90;;;;;;6129350;23;20973;-92
2023/10/20 00:06:34;;;;;;;25.60;21.48;;;9.40;99.90;;;;;;6130019;23;20377;-91
2023/10/20 00:08:59;;;;;;;25.97;21.63;;;8.80;99.90;;;;;;6130439;23;20369;-93
2023/10/20 00:11:25;;;;;;;24.38;21.35;;;9.00;99.90;;;;;;6129326;23;20373;-93
2023/10/20 00:13:52;;;;;;;25.65;22.85;;;8.50;99.90;;;;;;6130014;23;20377;-94
2023/10/20 00:16:28;;;;;;;27.98;23.27;;;8.20;99.90;;;;;;6130400;23;20377;-93
2023/10/20 00:18:54;;;;;;;27.13;22.27;;;8.60;99.90;;;;;;6130059;23;20400;-95
2023/10/20 00:21:21;;;;;;;27.42;22.80;;;8.70;99.90;;;;;;6129181;23;20435;-94
2023/10/20 00:23:47;;;;;;;29.17;23.42;;;8.60;99.90;;;;;;6130532;23;20369;-94
2023/10/20 00:26:13;;;;;;;31.77;24.85;;;8.70;99.90;;;;;;6128678;23;20911;-92
2023/10/20 00:28:39;;;;;;;30.17;24.00;;;9.00;99.90;;;;;;6129843;23;20369;-95
2023/10/20 00:31:05;;;;;;;26.83;22.95;;;8.70;99.90;;;;;;6129522;23;20455;-95
2023/10/20 00:33:37;;;;;;;26.45;23.08;;;8.50;99.90;;;;;;6130660;23;20377;-94
2023/10/20 00:36:04;;;;;;;28.73;23.52;;;8.60;99.90;;;;;;6130125;23;20901;-93
2023/10/20 00:38:29;;;;;;;27.85;22.70;;;8.60;99.90;;;;;;6129457;23;20394;-94
2023/10/20 00:40:55;;;;;;;27.90;21.85;;;8.70;99.90;;;;;;6130969;23;20369;-93
2023/10/20 00:43:21;;;;;;;29.07;23.27;;;8.70;99.90;;;;;;6129892;23;20373;-93
2023/10/20 00:45:47;;;;;;;29.23;22.73;;;8.90;99.90;;;;;;6142522;23;20381;-91
2023/10/20 00:48:14;;;;;;;29.17;21.92;;;8.90;99.90;;;;;;6129201;23;20370;-93
2023/10/20 00:50:40;;;;;;;25.15;21.58;;;8.80;99.90;;;;;;6132655;23;20372;-95
2023/10/20 00:53:09;;;;;;;28.10;21.20;;;8.90;99.90;;;;;;6156735;23;20413;-94
2023/10/20 00:55:35;;;;;;;28.58;21.73;;;9.00;99.90;;;;;;6155719;23;20374;-94
2023/10/20 00:58:01;;;;;;;30.15;23.20;;;8.60;99.90;;;;;;6130132;23;20425;-95
2023/10/20 01:00:28;;;;;;;30.58;23.23;;;8.70;99.90;;;;;;6130675;23;20456;-94
2023/10/20 01:03:00;;;;;;;32.10;23.70;;;8.60;99.90;;;;;;6129468;23;20381;-94
2023/10/20 01:05:26;;;;;;;31.67;24.42;;;8.50;99.90;;;;;;6131293;23;20377;-93
2023/10/20 01:07:52;;;;;;;29.75;23.38;;;8.60;99.90;;;;;;6130948;23;20409;-93
2023/10/20 01:10:18;;;;;;;33.00;24.80;;;8.80;99.90;;;;;;6129676;23;20365;-95
2023/10/20 01:12:44;;;;;;;31.67;24.48;;;8.90;99.90;;;;;;6133902;23;20382;-95
2023/10/20 01:15:15;;;;;;;31.33;24.65;;;8.60;99.90;;;;;;6132156;23;20401;-93
2023/10/20 01:17:41;;;;;;;31.52;24.17;;;8.50;99.90;;;;;;6156188;23;20365;-93
2023/10/20 01:20:07;;;;;;;34.47;26.25;;;8.60;99.90;;;;;;6129019;23;20733;-94
2023/10/20 01:22:34;;;;;;;34.03;25.35;;;8.50;99.90;;;;;;6129019;23;20711;-92
2023/10/20 01:25:05;;;;;;;32.95;24.40;;;8.50;99.90;;;;;;6153420;23;20376;-94
2023/10/20 01:27:38;;;;;;;33.80;24.63;;;8.50;99.90;;;;;;6132042;23;20401;-95
2023/10/20 01:30:13;;;;;;;33.88;25.23;;;8.60;99.90;;;;;;6068345;23;20730;-94
2023/10/20 01:32:41;;;;;;;34.73;25.53;;;8.30;99.90;;;;;;6089151;23;20478;-96
2023/10/20 01:35:07;;;;;;;35.63;25.08;;;8.50;99.90;;;;;;6064625;23;20493;-95
2023/10/20 01:37:33;;;;;;;35.63;25.13;;;8.50;99.90;;;;;;6065248;23;20405;-92
2023/10/20 01:39:59;;;;;;;36.63;26.17;;;8.70;99.90;;;;;;6088130;23;20406;-90
2023/10/20 01:42:24;;;;;;;37.08;25.73;;;8.70;99.90;;;;;;6064224;23;20513;-94
2023/10/20 01:44:50;;;;;;;36.97;26.33;;;8.70;99.90;;;;;;6041032;23;20502;-92
2023/10/20 01:47:16;;;;;;;36.63;26.17;;;8.60;99.90;;;;;;6065492;23;20473;-93
2023/10/20 01:49:50;;;;;;;34.78;24.67;;;8.80;99.90;;;;;;6089736;23;20366;-94
2023/10/20 01:52:16;;;;;;;38.20;25.48;;;8.60;99.90;;;;;;6041463;23;20402;-95
2023/10/20 01:54:45;;;;;;;37.17;25.67;;;8.80;99.90;;;;;;6067596;23;20371;-93
2023/10/20 01:57:10;;;;;;;39.38;26.45;;;8.50;99.90;;;;;;6087982;23;20371;-93
2023/10/20 01:59:39;;;;;;;39.13;27.20;;;8.90;99.90;;;;;;6067988;23;20402;-93
2023/10/20 02:02:08;;;;;;;35.17;25.80;;;8.70;99.90;;;;;;6145562;23;20929;-95
2023/10/20 02:04:34;;;;;;;40.65;28.30;;;8.70;99.90;;;;;;6103933;23;20406;-93
2023/10/20 02:07:00;;;;;;;45.30;29.47;;;8.80;99.90;;;;;;6103231;23;20370;-95
2023/10/20 02:09:25;;;;;;;44.23;30.83;;;8.70;99.90;;;;;;6105269;23;20475;-95
2023/10/20 02:11:56;;;;;;;46.97;30.58;;;8.80;99.90;;;;;;6108231;23;20382;-96
2023/10/20 02:14:33;;;;;;;47.90;31.30;;;9.60;99.90;;;;;;6104968;23;20463;-95
2023/10/20 02:17:01;;;;;;;42.65;29.75;;;8.60;99.90;;;;;;6092001;23;20367;-95
2023/10/20 02:19:27;;;;;;;49.50;32.63;;;8.70;99.90;;;;;;6125322;23;20406;-94
2023/10/20 02:21:53;;;;;;;52.72;32.88;;;8.40;99.90;;;;;;6102836;23;20372;-92
2023/10/20 02:24:19;;;;;;;57.08;34.05;;;9.40;99.90;;;;;;6105767;23;20462;-95
2023/10/20 02:26:48;;;;;;;54.63;35.00;;;8.90;99.90;;;;;;6109578;23;20367;-93
2023/10/20 02:29:17;;;;;;;47.60;32.75;;;8.50;99.90;;;;;;6104535;23;20363;-96
2023/10/20 02:31:43;;;;;;;55.63;34.83;;;8.90;99.90;;;;;;6104534;23;20578;-93
2023/10/20 02:34:19;;;;;;;46.83;31.87;;;8.80;99.90;;;;;;6124835;23;20429;-95
2023/10/20 02:36:50;;;;;;;49.63;31.83;;;9.10;99.90;;;;;;6131039;23;20394;-95
2023/10/20 02:39:18;;;;;;;43.97;30.70;;;8.50;99.90;;;;;;6127452;23;20395;-94
2023/10/20 02:41:47;;;;;;;51.20;32.47;;;8.40;99.90;;;;;;6102411;23;20371;-93
2023/10/20 02:44:15;;;;;;;49.15;32.40;;;8.50;99.90;;;;;;6105909;23;20403;-94
2023/10/20 02:46:41;;;;;;;47.03;31.50;;;8.60;99.90;;;;;;6126446;23;20473;-94
2023/10/20 02:49:06;;;;;;;46.30;29.90;;;9.10;99.90;;;;;;6137249;23;20385;-93
2023/10/20 02:51:32;;;;;;;46.33;30.70;;;8.50;99.90;;;;;;6133527;23;20456;-94
2023/10/20 02:53:59;;;;;;;48.67;31.35;;;8.60;99.90;;;;;;6134295;23;20377;-94
2023/10/20 02:56:28;;;;;;;45.80;29.92;;;8.50;99.90;;;;;;6136267;23;20793;-91
2023/10/20 02:58:56;;;;;;;48.35;31.35;;;8.50;99.90;;;;;;6138009;23;20405;-95
2023/10/20 03:01:23;;;;;;;48.13;31.55;;;9.40;99.90;;;;;;6160067;23;20384;-96
2023/10/20 03:04:12;;;;;;;48.65;31.58;;;8.50;99.90;;;;;;6136805;23;20394;-94
2023/10/20 03:06:38;;;;;;;50.33;32.00;;;8.40;99.90;;;;;;6134006;23;20511;-93
2023/10/20 03:09:07;;;;;;;52.35;32.30;;;8.20;99.90;;;;;;6134953;23;20374;-93
2023/10/20 03:11:34;;;;;;;52.20;32.92;;;8.50;99.90;;;;;;6134196;23;20381;-94
2023/10/20 03:14:00;;;;;;;56.67;33.88;;;8.60;99.90;;;;;;6136140;23;20362;-96
2023/10/20 03:16:26;;;;;;;50.10;32.40;;;8.60;99.90;;;;;;6156748;23;20392;-93
2023/10/20 03:18:54;;;;;;;48.08;32.33;;;8.70;99.90;;;;;;6132306;23;20412;-94
2023/10/20 03:21:23;;;;;;;50.83;32.42;;;8.50;99.90;;;;;;6155644;23;20369;-95
2023/10/20 03:23:49;;;;;;;52.35;33.72;;;8.50;99.90;;;;;;6130472;23;20456;-94
2023/10/20 03:26:23;;;;;;;57.20;34.20;;;8.40;99.90;;;;;;6131398;23;20404;-92
2023/10/20 03:28:49;;;;;;;53.88;34.53;;;8.40;99.90;;;;;;6155248;23;20373;-94
2023/10/20 03:31:18;;;;;;;54.05;34.63;;;8.50;99.90;;;;;;6131328;23;20416;-93
2023/10/20 03:33:43;;;;;;;57.70;34.88;;;8.40;99.90;;;;;;6152977;23;20376;-93
2023/10/20 03:36:09;;;;;;;49.92;33.10;;;9.00;99.90;;;;;;6131031;23;20862;-92
2023/10/20 03:38:34;;;;;;;50.37;32.20;;;8.70;99.90;;;;;;6128044;23;20397;-95
2023/10/20 03:41:07;;;;;;;50.40;32.80;;;8.30;99.90;;;;;;6132108;23;20378;-93
2023/10/20 03:43:36;;;;;;;47.90;32.83;;;8.40;99.90;;;;;;6131657;23;20377;-92
2023/10/20 03:46:13;;;;;;;50.88;33.20;;;8.50;99.90;;;;;;6149359;23;20392;-94
2023/10/20 03:48:43;;;;;;;49.28;32.83;;;8.40;99.90;;;;;;6162278;23;20365;-95
2023/10/20 03:51:11;;;;;;;49.05;32.45;;;8.60;99.90;;;;;;6133251;23;20378;-95
2023/10/20 03:53:52;;;;;;;43.70;30.63;;;8.90;99.90;;;;;;6182032;23;20365;-93
2023/10/20 03:56:23;;;;;;;45.42;30.92;;;8.60;99.90;;;;;;6131169;23;20432;-95
2023/10/20 03:58:48;;;;;;;48.95;31.83;;;8.40;99.90;;;;;;6137626;23;20393;-91
2023/10/20 04:01:14;;;;;;;40.03;28.90;;;8.50;99.90;;;;;;6131369;23;20369;-92
2023/10/20 04:03:40;;;;;;;46.27;31.33;;;8.60;99.90;;;;;;6135422;23;20373;-95
2023/10/20 04:06:08;;;;;;;42.25;30.25;;;8.50;99.90;;;;;;6158194;23;20365;-95
2023/10/20 04:08:34;;;;;;;44.25;31.15;;;8.30;99.90;;;;;;6133472;23;20376;-94
2023/10/20 04:11:00;;;;;;;40.92;29.77;;;8.50;99.90;;;;;;6130118;23;20365;-93
2023/10/20 04:13:29;;;;;;;43.33;29.00;;;9.00;99.90;;;;;;6134453;23;20369;-96
2023/10/20 04:15:57;;;;;;;44.92;30.60;;;8.30;99.90;;;;;;6108858;23;20907;-94
2023/10/20 04:18:23;;;;;;;42.75;30.27;;;8.40;99.90;;;;;;6133933;23;20484;-94
2023/10/20 04:20:57;;;;;;;39.33;28.30;;;8.70;99.90;;;;;;6131151;23;20373;-94
2023/10/20 04:23:26;;;;;;;39.63;28.48;;;8.30;99.90;;;;;;6159394;23;20369;-93
2023/10/20 04:25:55;;;;;;;39.87;28.20;;;8.30;99.90;;;;;;6132015;23;20393;-94
2023/10/20 04:28:41;;;;;;;36.22;27.17;;;8.10;99.90;;;;;;6131162;23;20357;-94
2023/10/20 04:48:20;;;;;;;27.63;23.23;;;8.30;99.90;;;;;;6189629;23;20382;-93
2023/10/20 04:54:07;;;;;;;28.52;22.42;;;8.80;99.90;;;;;;6182930;23;20382;-92
2023/10/20 04:57:18;;;;;;;28.27;22.67;;;8.40;99.90;;;;;;6138948;23;20385;-95
2023/10/20 04:59:31;;;;;;;28.58;23.70;;;8.20;99.90;;;;;;6161455;23;20408;-94
2023/10/20 05:02:10;;;;;;;29.65;23.48;;;8.40;99.90;;;;;;6164020;23;20369;-94
2023/10/20 05:04:46;;;;;;;27.10;22.25;;;8.60;99.90;;;;;;6135532;23;20361;-93
2023/10/20 05:07:16;;;;;;;26.30;21.95;;;8.20;99.90;;;;;;6135631;23;20373;-94
2023/10/20 05:09:54;;;;;;;26.33;21.75;;;8.20;99.90;;;;;;6135775;23;20365;-95
2023/10/20 05:12:20;;;;;;;25.40;20.85;;;8.40;99.90;;;;;;6134357;23;20778;-95
2023/10/20 05:15:15;;;;;;;24.80;19.73;;;8.20;99.90;;;;;;6160732;23;20365;-92
2023/10/20 05:17:50;;;;;;;22.65;18.73;;;8.20;99.90;;;;;;6070907;23;20386;-92
2023/10/20 05:20:20;;;;;;;21.73;18.45;;;8.40;99.90;;;;;;6075838;23;20987;-93
2023/10/20 05:22:51;;;;;;;20.27;17.08;;;8.20;99.90;;;;;;6068350;23;20453;-91
2023/10/20 05:25:17;;;;;;;18.87;16.50;;;8.70;99.90;;;;;;6073079;23;20372;-94
2023/10/20 05:27:43;;;;;;;21.33;17.97;;;8.20;99.90;;;;;;6071563;23;20408;-91
2023/10/20 05:30:13;;;;;;;20.02;16.45;;;8.40;99.90;;;;;;6073576;23;20375;-93
2023/10/20 05:32:38;;;;;;;19.38;15.73;;;8.40;99.90;;;;;;6072702;23;20373;-92
2023/10/20 05:35:08;;;;;;;17.30;15.50;;;8.20;99.90;;;;;;6072669;23;20440;-93
2023/10/20 05:37:40;;;;;;;16.35;14.43;;;8.40;99.90;;;;;;6073617;23;20388;-95
2023/10/20 05:40:06;;;;;;;16.80;15.00;;;8.40;99.90;;;;;;6073778;23;20483;-94
2023/10/20 05:42:32;;;;;;;17.35;14.90;;;8.30;99.90;;;;;;6074886;23;20412;-93
2023/10/20 05:45:09;;;;;;;20.08;14.98;;;8.40;99.90;;;;;;6074363;23;20770;-96
2023/10/20 05:47:46;;;;;;;15.73;13.87;;;8.40;99.90;;;;;;6073578;23;20999;-94
2023/10/20 05:50:15;;;;;;;15.95;14.25;;;8.30;99.90;;;;;;6069575;23;20462;-95
2023/10/20 05:52:46;;;;;;;15.00;13.40;;;8.70;99.90;;;;;;6067631;23;20392;-94
2023/10/20 05:55:12;;;;;;;16.33;13.40;;;8.30;99.90;;;;;;6111359;23;20386;-94
2023/10/20 05:57:37;;;;;;;14.90;12.43;;;8.50;99.90;;;;;;6124592;23;20371;-91
2023/10/20 06:00:13;;;;;;;13.60;12.20;;;8.40;99.90;;;;;;6100826;23;20452;-95
2023/10/20 06:02:41;;;;;;;14.55;13.05;;;8.30;99.90;;;;;;6128663;23;20379;-93
2023/10/20 06:05:16;;;;;;;14.10;12.48;;;8.30;99.90;;;;;;6098670;23;20371;-93
2023/10/20 06:07:43;;;;;;;14.02;12.45;;;8.20;99.90;;;;;;6101319;23;20472;-93
2023/10/20 06:10:11;;;;;;;13.15;11.55;;;8.30;99.90;;;;;;6099919;23;20461;-95
2023/10/20 06:12:38;;;;;;;13.18;11.77;;;8.30;99.90;;;;;;6130170;23;20434;-93
2023/10/20 06:15:27;;;;;;;13.23;11.80;;;8.60;99.90;;;;;;6101238;23;20513;-93
2023/10/20 06:17:53;;;;;;;12.32;10.73;;;8.40;99.90;;;;;;6128411;23;20378;-94
2023/10/20 06:20:19;;;;;;;13.55;10.50;;;8.20;99.90;;;;;;6103730;23;20446;-94
2023/10/20 06:22:44;;;;;;;11.45;9.75;;;8.40;99.90;;;;;;6100944;23;20387;-93
2023/10/20 06:25:16;;;;;;;10.80;9.30;;;8.80;99.90;;;;;;6126131;23;20398;-94
2023/10/20 06:27:43;;;;;;;10.73;9.03;;;8.40;99.90;;;;;;6102813;23;20371;-92
2023/10/20 06:30:24;;;;;;;9.25;8.25;;;8.40;99.90;;;;;;6125206;23;20374;-92
2023/10/20 06:33:16;;;;;;;10.13;8.60;;;8.40;99.90;;;;;;6125362;23;20385;-92
2023/10/20 06:35:49;;;;;;;10.45;7.97;;;8.40;99.90;;;;;;6125537;23;20375;-92
2023/10/20 06:38:30;;;;;;;9.70;7.63;;;8.40;99.90;;;;;;6126052;23;20399;-95
2023/10/20 06:40:57;;;;;;;9.77;7.32;;;8.50;99.90;;;;;;6115625;23;20947;-92
2023/10/20 06:43:24;;;;;;;10.33;7.37;;;8.70;99.90;;;;;;6123977;23;20409;-93
2023/10/20 06:46:01;;;;;;;8.37;6.40;;;8.80;99.90;;;;;;6125365;23;20390;-95
2023/10/20 06:48:31;;;;;;;8.48;6.28;;;8.20;99.90;;;;;;6125966;23;20697;-95
2023/10/20 06:50:57;;;;;;;8.38;5.57;;;8.40;99.90;;;;;;6113561;23;20354;-93
2023/10/20 06:53:28;;;;;;;7.15;4.90;;;8.70;99.90;;;;;;6124063;23;20371;-95
2023/10/20 06:55:56;;;;;;;7.10;5.18;;;8.50;99.90;;;;;;6125651;23;20402;-94
2023/10/20 06:58:21;;;;;;;5.73;4.60;;;8.40;99.90;;;;;;6123325;23;20525;-94
2023/10/20 07:00:47;;;;;;;5.17;4.30;;;9.10;99.90;;;;;;6124098;23;20412;-92
2023/10/20 07:03:16;;;;;;;5.80;4.65;;;8.50;99.90;;;;;;6125918;23;20375;-94
2023/10/20 07:05:44;;;;;;;5.50;4.40;;;8.50;99.90;;;;;;6125230;23;20379;-93
2023/10/20 07:08:10;;;;;;;5.63;4.22;;;8.60;99.90;;;;;;6125157;23;20383;-93
2023/10/20 07:10:39;;;;;;;7.00;4.07;;;9.00;99.90;;;;;;6123625;23;20367;-94
2023/10/20 07:13:11;;;;;;;6.10;4.80;;;8.60;99.90;;;;;;6131793;23;20375;-91
2023/10/20 07:15:38;;;;;;;7.68;4.57;;;8.40;99.90;;;;;;6123877;23;20852;-90
2023/10/20 07:18:07;;;;;;;6.47;4.30;;;8.40;99.90;;;;;;6125659;23;20481;-90
2023/10/20 07:20:38;;;;;;;6.73;4.07;;;8.60;99.90;;;;;;6126248;23;20457;-92
2023/10/20 07:23:07;;;;;;;5.77;4.03;;;8.30;99.90;;;;;;6097036;23;20387;-93
2023/10/20 07:25:32;;;;;;;6.78;3.90;;;8.40;99.90;;;;;;6097474;23;20566;-91
2023/10/20 07:27:58;;;;;;;5.70;4.13;;;8.50;99.90;;;;;;6124550;23;20776;-94
2023/10/20 07:30:24;;;;;;;6.23;4.37;;;8.30;99.90;;;;;;6125132;23;20374;-95
2023/10/20 07:32:51;;;;;;;5.57;4.33;;;8.20;99.90;;;;;;6123183;23;20367;-90
2023/10/20 07:35:22;;;;;;;5.37;4.20;;;8.80;99.90;;;;;;6124933;23;20377;-92
2023/10/20 07:37:48;;;;;;;5.63;3.72;;;8.40;99.90;;;;;;6123774;23;20453;-94
2023/10/20 07:40:14;;;;;;;5.53;3.67;;;8.40;99.90;;;;;;6123740;23;20410;-93
2023/10/20 07:42:41;;;;;;;6.20;4.07;;;8.20;99.90;;;;;;6122833;23;20855;-95
2023/10/20 07:45:07;;;;;;;4.88;4.20;;;8.30;99.90;;;;;;6124309;23;20379;-94
2023/10/20 07:47:36;;;;;;;5.72;3.90;;;8.20;99.90;;;;;;6099424;23;20382;-91
2023/10/20 07:50:06;;;;;;;5.13;3.70;;;8.30;99.90;;;;;;6124578;23;20883;-90
2023/10/20 07:52:32;;;;;;;5.22;4.38;;;8.20;99.90;;;;;;6124029;23;20425;-91
2023/10/20 07:54:57;;;;;;;5.40;4.07;;;8.40;99.90;;;;;;6124625;23;20371;-94
2023/10/20 07:57:26;;;;;;;5.23;4.00;;;8.10;99.90;;;;;;6124884;23;20429;-94
2023/10/20 07:59:52;;;;;;;5.55;3.60;;;8.10;99.90;;;;;;6124395;23;20833;-93
2023/10/20 08:02:18;;;;;;;6.43;4.00;;;8.20;99.90;;;;;;6124462;23;20402;-94
2023/10/20 08:04:43;;;;;;;5.15;3.67;;;8.20;99.90;;;;;;6123818;23;20948;-93
2023/10/20 08:07:09;;;;;;;5.70;4.00;;;8.10;99.90;;;;;;6124995;23;20691;-92
2023/10/20 08:09:36;;;;;;;5.53;4.10;;;8.00;99.90;;;;;;6124361;23;20429;-93
2023/10/20 08:12:02;;;;;;;6.07;4.60;;;8.10;99.90;;;;;;6124646;23;20385;-91
2023/10/20 08:14:33;;;;;;;6.97;4.50;;;8.00;99.90;;;;;;6123409;23;20375;-94
2023/10/20 08:17:03;;;;;;;6.20;4.40;;;8.20;99.90;;;;;;6111853;23;20372;-93
2023/10/20 08:19:30;;;;;;;5.78;4.80;;;8.00;99.90;;;;;;6123865;23;20533;-92
2023/10/20 08:21:59;;;;;;;6.15;4.82;;;8.20;99.90;;;;;;6123459;23;20382;-94
2023/10/20 08:24:30;;;;;;;7.47;5.20;;;8.00;99.90;;;;;;6124904;23;20462;-94
2023/10/20 08:26:59;;;;;;;7.60;5.50;;;8.00;99.90;;;;;;6125767;23;20417;-93
2023/10/20 08:29:25;;;;;;;7.40;5.88;;;7.80;99.90;;;;;;6125871;23;20382;-93
2023/10/20 08:31:54;;;;;;;8.40;6.20;;;7.80;99.90;;;;;;6125832;23;20934;-93
2023/10/20 08:34:20;;;;;;;7.22;5.88;;;8.00;99.90;;;;;;6124848;23;20374;-90
2023/10/20 08:36:49;;;;;;;6.47;4.82;;;8.10;99.90;;;;;;6121870;23;20436;-88
2023/10/20 08:39:19;;;;;;;6.47;5.30;;;8.10;99.90;;;;;;6125859;23;20477;-93
2023/10/20 08:41:45;;;;;;;7.00;5.10;;;7.90;99.90;;;;;;6123561;23;20516;-91
2023/10/20 08:44:14;;;;;;;6.53;4.88;;;7.80;99.90;;;;;;6125386;23;20371;-92
2023/10/20 08:46:41;;;;;;;5.82;4.35;;;8.20;99.90;;;;;;6122109;23;20379;-93
2023/10/20 08:49:08;;;;;;;5.27;4.20;;;8.60;99.90;;;;;;6099034;23;20379;-93
2023/10/20 08:51:37;;;;;;;5.20;4.20;;;7.90;99.90;;;;;;6124341;23;20832;-91
2023/10/20 08:54:16;;;;;;;5.82;4.15;;;8.20;99.90;;;;;;6099013;23;20386;-94
2023/10/20 08:56:49;;;;;;;5.13;3.95;;;8.00;99.90;;;;;;6124050;23;20458;-94
2023/10/20 08:59:15;;;;;;;4.57;3.40;;;7.90;99.90;;;;;;6121795;23;20395;-91
2023/10/20 09:01:42;;;;;;;5.68;2.88;;;8.80;99.90;;;;;;6124484;23;20374;-92
2023/10/20 09:04:07;;;;;;;5.05;3.05;;;7.90;99.90;;;;;;6122695;23;20808;-92
2023/10/20 09:06:36;;;;;;;3.83;2.50;;;8.00;99.90;;;;;;6124376;23;20376;-94
2023/10/20 09:09:05;;;;;;;3.88;2.60;;;8.00;99.90;;;;;;6102301;23;20372;-92
2023/10/20 09:11:32;;;;;;;3.95;2.33;;;7.80;99.90;;;;;;6123214;23;20383;-95
2023/10/20 09:13:59;;;;;;;3.53;1.90;;;8.40;99.90;;;;;;6123794;23;20398;-90
2023/10/20 09:16:27;;;;;;;3.45;2.08;;;7.80;99.90;;;;;;6123521;23;20375;-95
2023/10/20 09:18:55;;;;;;;3.15;1.85;;;8.10;99.90;;;;;;6124539;23;20403;-91
2023/10/20 09:21:28;;;;;;;2.72;1.70;;;8.10;99.90;;;;;;6122826;23;20461;-94
2023/10/20 09:24:23;;;;;;;4.30;2.13;;;7.80;99.90;;;;;;6125355;23;20426;-94
2023/10/20 09:26:57;;;;;;;3.50;1.30;;;7.80;99.90;;;;;;6124397;23;20403;-94
2023/10/20 09:29:25;;;;;;;2.78;1.50;;;7.80;99.90;;;;;;6123678;23;20375;-93
2023/10/20 09:31:54;;;;;;;2.75;1.65;;;7.60;99.90;;;;;;6124909;23;20383;-94
2023/10/20 09:34:20;;;;;;;3.25;1.75;;;7.90;99.90;;;;;;6123656;23;20375;-91
2023/10/20 09:36:52;;;;;;;3.88;1.77;;;7.90;99.90;;;;;;6125524;23;20367;-93
2023/10/20 09:39:25;;;;;;;3.65;2.17;;;7.80;99.90;;;;;;6123556;23;20890;-93
2023/10/20 09:41:59;;;;;;;3.72;1.73;;;7.70;99.90;;;;;;6125034;23;21080;-91
2023/10/20 09:44:40;;;;;;;3.15;1.38;;;7.80;99.90;;;;;;6122443;23;20370;-94
2023/10/20 09:47:22;;;;;;;3.35;1.30;;;7.70;99.90;;;;;;6102715;23;20841;-91
2023/10/20 09:49:51;;;;;;;2.85;1.40;;;7.80;99.90;;;;;;6127684;23;20458;-92
2023/10/20 09:52:17;;;;;;;2.25;1.10;;;8.20;99.90;;;;;;6153686;23;20457;-94
2023/10/20 09:54:43;;;;;;;3.60;1.35;;;7.50;99.90;;;;;;6128572;23;20691;-92
2023/10/20 09:57:09;;;;;;;2.45;1.20;;;8.10;99.90;;;;;;6129146;23;20385;-90
2023/10/20 09:59:41;;;;;;;2.00;1.00;;;8.10;99.90;;;;;;6150813;23;20402;-95
2023/10/20 10:02:07;;;;;;;1.92;1.00;;;7.80;99.90;;;;;;6128323;23;20934;-91
2023/10/20 10:04:37;;;;;;;2.10;1.00;;;8.40;99.90;;;;;;6130944;23;20378;-92
2023/10/20 10:07:09;;;;;;;2.35;0.93;;;7.70;99.90;;;;;;6135709;23;20375;-92
2023/10/20 10:09:43;;;;;;;2.30;0.80;;;7.70;99.90;;;;;;6146344;23;20449;-91
2023/10/20 10:12:17;;;;;;;2.33;0.65;;;7.70;99.90;;;;;;6129497;23;20376;-94
2023/10/20 10:15:01;;;;;;;1.75;0.60;;;8.00;99.90;;;;;;6125584;23;20379;-94
2023/10/20 10:17:27;;;;;;;1.80;0.70;;;7.70;99.90;;;;;;6129639;23;20691;-94
2023/10/20 10:19:56;;;;;;;2.10;0.73;;;7.70;99.90;;;;;;6151813;23;20404;-95
2023/10/20 10:22:27;;;;;;;1.65;0.80;;;7.90;99.90;;;;;;6128746;23;20532;-95
2023/10/20 10:24:54;;;;;;;1.75;0.90;;;7.90;99.90;;;;;;6127204;23;20377;-93
2023/10/20 10:27:22;;;;;;;2.20;0.80;;;7.70;99.90;;;;;;6124869;23;20403;-92
2023/10/20 10:30:05;;;;;;;1.73;0.57;;;7.70;99.90;;;;;;6136964;23;20407;-95
2023/10/20 10:32:32;;;;;;;2.20;0.70;;;7.60;99.90;;;;;;6159308;23;20378;-93
2023/10/20 10:34:59;;;;;;;2.50;0.60;;;7.70;99.90;;;;;;6132084;23;20866;-89
2023/10/20 10:37:36;;;;;;;1.80;0.57;;;7.60;99.90;;;;;;6129360;23;20369;-94
2023/10/20 10:40:13;;;;;;;2.20;0.80;;;7.60;99.90;;;;;;6123912;23;22277;-94
2023/10/20 10:42:48;;;;;;;2.28;0.80;;;7.50;99.90;;;;;;6124230;23;20413;-95
2023/10/20 10:45:31;;;;;;;1.83;0.60;;;7.70;99.90;;;;;;6130285;23;20424;-93
2023/10/20 10:48:09;;;;;;;2.63;0.70;;;8.10;99.90;;;;;;6124164;23;20387;-93
2023/10/20 10:50:40;;;;;;;2.20;0.65;;;7.60;99.90;;;;;;6129268;23;20387;-92
2023/10/20 10:53:07;;;;;;;1.83;0.63;;;7.60;99.90;;;;;;6130553;23;20377;-93
2023/10/20 10:55:39;;;;;;;2.07;0.53;;;7.80;99.90;;;;;;6127904;23;20374;-94
2023/10/20 10:58:13;;;;;;;2.70;0.70;;;7.40;99.90;;;;;;6132038;23;20373;-93
2023/10/20 11:00:44;;;;;;;1.42;0.68;;;7.50;99.90;;;;;;6132216;23;20369;-95
2023/10/20 11:03:10;;;;;;;1.50;0.60;;;7.60;99.90;;;;;;6131387;23;20377;-93
2023/10/20 11:05:39;;;;;;;1.90;0.50;;;8.10;99.90;;;;;;6128976;23;20367;-93
2023/10/20 11:08:13;;;;;;;1.15;0.40;;;7.60;99.90;;;;;;6131727;23;20526;-94
2023/10/20 11:10:42;;;;;;;2.28;0.50;;;7.70;99.90;;;;;;6105660;23;20373;-93
2023/10/20 11:13:16;;;;;;;1.40;0.50;;;7.60;99.90;;;;;;6130380;23;20372;-94
2023/10/20 11:15:46;;;;;;;3.22;0.55;;;7.70;99.90;;;;;;6127781;23;20375;-95
2023/10/20 11:18:12;;;;;;;1.75;0.65;;;7.30;99.90;;;;;;6130429;23;20448;-93
2023/10/20 11:20:41;;;;;;;1.42;0.57;;;7.50;99.90;;;;;;6131065;23;20373;-93
2023/10/20 11:23:12;;;;;;;1.50;0.50;;;7.30;99.90;;;;;;6130770;23;20431;-94
2023/10/20 11:25:42;;;;;;;1.42;0.50;;;7.30;99.90;;;;;;6150877;23;20510;-91
2023/10/20 11:28:08;;;;;;;2.50;0.40;;;7.30;99.90;;;;;;6140603;23;20394;-94
2023/10/20 11:30:46;;;;;;;1.40;0.40;;;7.30;99.90;;;;;;6121142;23;20375;-94
2023/10/20 11:33:20;;;;;;;1.13;0.40;;;7.10;99.90;;;;;;6143637;23;20375;-95
2023/10/20 11:35:53;;;;;;;1.40;0.40;;;7.30;99.90;;;;;;6126219;23;20839;-93
2023/10/20 11:38:22;;;;;;;0.90;0.40;;;7.30;99.90;;;;;;6131905;23;20393;-92
2023/10/20 11:40:51;;;;;;;1.45;0.45;;;7.30;99.90;;;;;;6130844;23;20378;-92
2023/10/20 11:43:20;;;;;;;1.55;0.40;;;7.20;99.90;;;;;;6130066;23;20379;-94
2023/10/20 11:45:54;;;;;;;1.75;0.30;;;7.30;99.90;;;;;;6114272;23;20871;-94
2023/10/20 11:48:23;;;;;;;1.30;0.30;;;7.30;99.90;;;;;;6101371;23;20437;-92
2023/10/20 11:50:51;;;;;;;0.60;0.20;;;7.20;99.90;;;;;;6101738;23;20402;-93
2023/10/20 11:53:20;;;;;;;1.05;0.30;;;7.40;99.90;;;;;;6100795;23;20463;-93
2023/10/20 11:55:45;;;;;;;1.38;0.30;;;7.40;99.90;;;;;;6102016;23;20378;-94
2023/10/20 11:58:11;;;;;;;1.30;0.30;;;7.30;99.90;;;;;;6100447;23;20375;-94
2023/10/20 12:00:41;;;;;;;0.80;0.30;;;7.60;99.90;;;;;;6100844;23;20371;-92
2023/10/20 12:03:10;;;;;;;1.33;0.30;;;7.40;99.90;;;;;;6099664;23;20371;-91
2023/10/20 12:05:39;;;;;;;1.30;0.30;;;7.30;99.90;;;;;;6101546;23;20375;-94
2023/10/20 12:08:13;;;;;;;1.00;0.30;;;7.50;99.90;;;;;;6102496;23;20391;-93
2023/10/20 12:10:39;;;;;;;0.90;0.40;;;7.30;99.90;;;;;;6102536;23;20383;-92
2023/10/20 12:13:16;;;;;;;1.00;0.40;;;7.60;99.90;;;;;;6102525;23;20376;-96
2023/10/20 12:15:45;;;;;;;1.58;0.30;;;7.20;99.90;;;;;;6102714;23;20375;-95
2023/10/20 12:18:10;;;;;;;0.90;0.20;;;7.40;99.90;;;;;;6101532;23;20375;-95
2023/10/20 12:20:39;;;;;;;1.50;0.30;;;7.50;99.90;;;;;;6103764;23;20678;-93
2023/10/20 12:23:06;;;;;;;1.40;0.20;;;7.60;99.90;;;;;;6110944;23;20375;-96
2023/10/20 12:25:42;;;;;;;1.05;0.30;;;7.50;99.90;;;;;;6110766;23;20379;-94
2023/10/20 12:28:08;;;;;;;1.08;0.30;;;7.30;99.90;;;;;;6108987;23;20363;-93
2023/10/20 12:30:35;;;;;;;1.30;0.20;;;7.30;99.90;;;;;;6100178;23;20390;-94
2023/10/20 12:33:01;;;;;;;0.60;0.30;;;7.30;99.90;;;;;;6101916;23;20403;-94
2023/10/20 12:35:26;;;;;;;1.20;0.30;;;7.90;99.90;;;;;;6099402;23;20436;-94
2023/10/20 12:37:52;;;;;;;1.17;0.30;;;7.30;99.90;;;;;;6099233;23;20390;-93
2023/10/20 12:40:18;;;;;;;0.90;0.50;;;7.50;99.90;;;;;;6101304;23;20399;-91
2023/10/20 12:42:46;;;;;;;0.73;0.30;;;7.30;99.90;;;;;;6104812;23;20386;-93
2023/10/20 12:45:13;;;;;;;1.00;0.40;;;7.40;99.90;;;;;;6101656;23;20415;-94
2023/10/20 12:47:38;;;;;;;1.10;0.40;;;7.30;99.90;;;;;;6100302;23;20426;-93
2023/10/20 12:50:08;;;;;;;0.63;0.30;;;7.50;99.90;;;;;;6101389;23;20375;-93
2023/10/20 12:52:34;;;;;;;0.65;0.30;;;7.40;99.90;;;;;;6101352;23;20738;-93
2023/10/20 12:55:09;;;;;;;2.60;0.30;;;7.70;99.90;;;;;;6078352;23;20425;-94
2023/10/20 12:57:35;;;;;;;1.02;0.38;;;7.40;99.90;;;;;;6099685;23;20386;-92
2023/10/20 13:00:04;;;;;;;0.70;0.30;;;7.50;99.90;;;;;;6101647;23;20493;-95
2023/10/20 13:02:33;;;;;;;0.60;0.20;;;7.40;99.90;;;;;;6101502;23;20375;-93
2023/10/20 13:04:59;;;;;;;1.80;0.20;;;7.30;99.90;;;;;;6103607;23;20378;-92
2023/10/20 13:07:37;;;;;;;0.90;0.20;;;7.10;99.90;;;;;;6105091;23;20382;-96
2023/10/20 13:10:14;;;;;;;0.60;0.20;;;7.30;99.90;;;;;;6130438;23;20379;-94
2023/10/20 13:12:39;;;;;;;0.65;0.25;;;7.70;99.90;;;;;;6103146;23;20434;-94
2023/10/20 13:15:06;;;;;;;0.70;0.20;;;7.40;99.90;;;;;;6102020;23;20760;-91
2023/10/20 13:17:34;;;;;;;0.80;0.20;;;7.30;99.90;;;;;;6100139;23;20376;-93
2023/10/20 13:20:09;;;;;;;1.73;0.30;;;7.50;99.90;;;;;;6104353;23;20461;-95